sensor_id;sensor_type;location;lat;lon;timestamp;temperature;humidity
37896;DHT22;23733;53.254;10.430;2023-06-14T00:00:52;16.60;99.90
37896;DHT22;23733;53.254;10.430;2023-06-14T00:03:18;16.60;99.90
37896;DHT22;23733;53.254;10.430;2023-06-14T00:05:45;16.70;99.90
37896;DHT22;23733;53.254;10.430;2023-06-14T00:08:12;16.80;99.90
37896;DHT22;23733;53.254;10.430;2023-06-14T00:10:38;16.70;99.90
37896;DHT22;23733;53.254;10.430;2023-06-14T00:13:10;16.70;99.90
37896;DHT22;23733;53.254;10.430;2023-06-14T00:15:36;16.70;99.90
37896;DHT22;23733;53.254;10.430;2023-06-14T00:18:03;16.70;99.90
37896;DHT22;23733;53.254;10.430;2023-06-14T00:20:31;16.60;99.90
37896;DHT22;23733;53.254;10.430;2023-06-14T00:22:59;16.60;99.90
37896;DHT22;23733;53.254;10.430;2023-06-14T00:25:26;16.70;99.90
37896;DHT22;23733;53.254;10.430;2023-06-14T00:27:52;16.70;99.90
37896;DHT22;23733;53.254;10.430;2023-06-14T00:30:19;16.50;99.90
37896;DHT22;23733;53.254;10.430;2023-06-14T00:32:45;16.50;99.90
37896;DHT22;23733;53.254;10.430;2023-06-14T00:35:12;16.50;99.90
37896;DHT22;23733;53.254;10.430;2023-06-14T00:37:38;16.40;99.90
37896;DHT22;23733;53.254;10.430;2023-06-14T00:40:06;16.30;99.90
37896;DHT22;23733;53.254;10.430;2023-06-14T00:42:33;16.20;99.90
37896;DHT22;23733;53.254;10.430;2023-06-14T00:45:00;16.10;99.90
37896;DHT22;23733;53.254;10.430;2023-06-14T00:47:26;16.20;99.90
37896;DHT22;23733;53.254;10.430;2023-06-14T00:49:54;16.20;99.90
37896;DHT22;23733;53.254;10.430;2023-06-14T00:52:22;16.20;99.90
37896;DHT22;23733;53.254;10.430;2023-06-14T00:54:50;16.10;99.90
37896;DHT22;23733;53.254;10.430;2023-06-14T00:57:16;16.10;99.90
37896;DHT22;23733;53.254;10.430;2023-06-14T00:59:45;15.90;99.90
37896;DHT22;23733;53.254;10.430;2023-06-14T01:02:12;15.90;99.90
37896;DHT22;23733;53.254;10.430;2023-06-14T01:04:41;15.90;99.90
37896;DHT22;23733;53.254;10.430;2023-06-14T01:07:35;15.90;99.90
37896;DHT22;23733;53.254;10.430;2023-06-14T01:12:53;15.90;99.90
37896;DHT22;23733;53.254;10.430;2023-06-14T01:15:21;16.00;99.90
37896;DHT22;23733;53.254;10.430;2023-06-14T01:17:49;16.10;99.90
37896;DHT22;23733;53.254;10.430;2023-06-14T01:20:19;16.00;99.90
37896;DHT22;23733;53.254;10.430;2023-06-14T01:22:55;16.00;99.90
37896;DHT22;23733;53.254;10.430;2023-06-14T01:25:22;16.00;99.90
37896;DHT22;23733;53.254;10.430;2023-06-14T01:28:00;16.00;99.90
37896;DHT22;23733;53.254;10.430;2023-06-14T01:30:27;15.90;99.90
37896;DHT22;23733;53.254;10.430;2023-06-14T01:32:54;15.80;99.90
37896;DHT22;23733;53.254;10.430;2023-06-14T01:35:21;15.80;99.90
37896;DHT22;23733;53.254;10.430;2023-06-14T01:37:49;15.80;99.90
37896;DHT22;23733;53.254;10.430;2023-06-14T01:40:16;15.70;99.90
37896;DHT22;23733;53.254;10.430;2023-06-14T01:42:43;15.80;99.90
37896;DHT22;23733;53.254;10.430;2023-06-14T01:45:12;15.70;99.90
37896;DHT22;23733;53.254;10.430;2023-06-14T01:47:38;15.60;99.90
37896;DHT22;23733;53.254;10.430;2023-06-14T01:50:06;15.70;99.90
37896;DHT22;23733;53.254;10.430;2023-06-14T01:52:32;15.60;99.90
37896;DHT22;23733;53.254;10.430;2023-06-14T01:54:58;15.40;99.90
37896;DHT22;23733;53.254;10.430;2023-06-14T01:57:25;15.40;99.90
37896;DHT22;23733;53.254;10.430;2023-06-14T01:59:52;15.50;99.90
37896;DHT22;23733;53.254;10.430;2023-06-14T02:02:18;15.40;99.90
37896;DHT22;23733;53.254;10.430;2023-06-14T02:04:44;15.50;99.90
37896;DHT22;23733;53.254;10.430;2023-06-14T02:07:13;15.30;99.90
37896;DHT22;23733;53.254;10.430;2023-06-14T02:09:41;15.30;99.90
37896;DHT22;23733;53.254;10.430;2023-06-14T02:12:07;15.20;99.90
37896;DHT22;23733;53.254;10.430;2023-06-14T02:14:33;15.10;99.90
37896;DHT22;23733;53.254;10.430;2023-06-14T02:16:59;15.20;99.90
37896;DHT22;23733;53.254;10.430;2023-06-14T02:19:26;15.10;99.90
37896;DHT22;23733;53.254;10.430;2023-06-14T02:21:53;15.00;99.90
37896;DHT22;23733;53.254;10.430;2023-06-14T02:24:19;15.00;99.90
37896;DHT22;23733;53.254;10.430;2023-06-14T02:26:45;15.10;99.90
37896;DHT22;23733;53.254;10.430;2023-06-14T02:29:11;15.00;99.90
37896;DHT22;23733;53.254;10.430;2023-06-14T02:31:40;15.00;99.90
37896;DHT22;23733;53.254;10.430;2023-06-14T02:34:06;15.00;99.90
37896;DHT22;23733;53.254;10.430;2023-06-14T02:36:35;14.80;99.90
37896;DHT22;23733;53.254;10.430;2023-06-14T02:39:01;15.00;99.90
37896;DHT22;23733;53.254;10.430;2023-06-14T02:41:27;15.00;99.90
37896;DHT22;23733;53.254;10.430;2023-06-14T02:43:53;14.90;99.90
37896;DHT22;23733;53.254;10.430;2023-06-14T02:46:19;14.90;99.90
37896;DHT22;23733;53.254;10.430;2023-06-14T02:48:45;14.80;99.90
37896;DHT22;23733;53.254;10.430;2023-06-14T02:51:11;14.80;99.90
37896;DHT22;23733;53.254;10.430;2023-06-14T02:53:38;14.70;99.90
37896;DHT22;23733;53.254;10.430;2023-06-14T02:56:04;14.50;99.90
37896;DHT22;23733;53.254;10.430;2023-06-14T02:58:30;14.60;99.90
37896;DHT22;23733;53.254;10.430;2023-06-14T03:00:56;14.50;99.90
37896;DHT22;23733;53.254;10.430;2023-06-14T03:03:22;14.60;99.90
37896;DHT22;23733;53.254;10.430;2023-06-14T03:05:50;14.60;99.90
37896;DHT22;23733;53.254;10.430;2023-06-14T03:08:17;14.50;99.90
37896;DHT22;23733;53.254;10.430;2023-06-14T03:10:48;14.50;99.90
37896;DHT22;23733;53.254;10.430;2023-06-14T03:13:15;14.50;99.90
37896;DHT22;23733;53.254;10.430;2023-06-14T03:15:44;14.50;99.90
37896;DHT22;23733;53.254;10.430;2023-06-14T03:18:11;14.60;99.90
37896;DHT22;23733;53.254;10.430;2023-06-14T03:20:38;14.50;99.90
37896;DHT22;23733;53.254;10.430;2023-06-14T03:23:04;14.50;99.90
37896;DHT22;23733;53.254;10.430;2023-06-14T03:25:31;14.40;99.90
37896;DHT22;23733;53.254;10.430;2023-06-14T03:27:59;14.40;99.90
37896;DHT22;23733;53.254;10.430;2023-06-14T03:30:25;14.40;99.90
37896;DHT22;23733;53.254;10.430;2023-06-14T03:32:51;14.30;99.90
37896;DHT22;23733;53.254;10.430;2023-06-14T03:35:19;14.30;99.90
37896;DHT22;23733;53.254;10.430;2023-06-14T03:37:46;14.40;99.90
37896;DHT22;23733;53.254;10.430;2023-06-14T03:40:14;14.30;99.90
37896;DHT22;23733;53.254;10.430;2023-06-14T03:42:40;14.20;99.90
37896;DHT22;23733;53.254;10.430;2023-06-14T03:45:07;14.20;99.90
37896;DHT22;23733;53.254;10.430;2023-06-14T03:47:34;14.10;99.90
37896;DHT22;23733;53.254;10.430;2023-06-14T03:50:00;14.20;99.90
37896;DHT22;23733;53.254;10.430;2023-06-14T03:52:27;14.30;99.90
37896;DHT22;23733;53.254;10.430;2023-06-14T03:54:53;14.30;99.90
37896;DHT22;23733;53.254;10.430;2023-06-14T03:57:19;14.20;99.90
37896;DHT22;23733;53.254;10.430;2023-06-14T03:59:48;14.20;99.90
37896;DHT22;23733;53.254;10.430;2023-06-14T04:02:14;14.20;99.90
37896;DHT22;23733;53.254;10.430;2023-06-14T04:04:44;14.20;99.90
37896;DHT22;23733;53.254;10.430;2023-06-14T04:07:12;14.30;99.90
37896;DHT22;23733;53.254;10.430;2023-06-14T04:09:39;14.30;99.90
37896;DHT22;23733;53.254;10.430;2023-06-14T04:12:06;14.30;99.90
37896;DHT22;23733;53.254;10.430;2023-06-14T04:14:34;14.30;99.90
37896;DHT22;23733;53.254;10.430;2023-06-14T04:17:00;14.30;99.90
37896;DHT22;23733;53.254;10.430;2023-06-14T04:19:27;14.30;99.90
37896;DHT22;23733;53.254;10.430;2023-06-14T04:21:53;14.30;99.90
37896;DHT22;23733;53.254;10.430;2023-06-14T04:24:19;14.30;99.90
37896;DHT22;23733;53.254;10.430;2023-06-14T04:26:45;14.40;99.90
37896;DHT22;23733;53.254;10.430;2023-06-14T04:29:14;14.50;99.90
37896;DHT22;23733;53.254;10.430;2023-06-14T04:34:12;14.60;99.90
37896;DHT22;23733;53.254;10.430;2023-06-14T04:36:42;14.80;99.90
37896;DHT22;23733;53.254;10.430;2023-06-14T04:39:16;14.80;99.90
37896;DHT22;23733;53.254;10.430;2023-06-14T04:41:43;14.90;99.90
37896;DHT22;23733;53.254;10.430;2023-06-14T04:44:10;14.90;99.90
37896;DHT22;23733;53.254;10.430;2023-06-14T04:46:36;15.00;99.90
37896;DHT22;23733;53.254;10.430;2023-06-14T04:49:13;15.00;99.90
37896;DHT22;23733;53.254;10.430;2023-06-14T04:51:41;15.00;99.90
37896;DHT22;23733;53.254;10.430;2023-06-14T04:54:09;15.10;99.90
37896;DHT22;23733;53.254;10.430;2023-06-14T04:56:44;15.10;99.90
37896;DHT22;23733;53.254;10.430;2023-06-14T04:59:11;15.20;99.90
37896;DHT22;23733;53.254;10.430;2023-06-14T05:01:38;15.30;99.90
37896;DHT22;23733;53.254;10.430;2023-06-14T05:04:04;15.40;99.90
37896;DHT22;23733;53.254;10.430;2023-06-14T05:06:30;15.40;99.90
37896;DHT22;23733;53.254;10.430;2023-06-14T05:08:57;15.50;99.90
37896;DHT22;23733;53.254;10.430;2023-06-14T05:11:23;15.50;99.90
37896;DHT22;23733;53.254;10.430;2023-06-14T05:13:52;15.60;99.90
37896;DHT22;23733;53.254;10.430;2023-06-14T05:16:18;15.50;99.90
37896;DHT22;23733;53.254;10.430;2023-06-14T05:23:43;15.60;99.90
37896;DHT22;23733;53.254;10.430;2023-06-14T05:26:10;15.90;99.90
37896;DHT22;23733;53.254;10.430;2023-06-14T05:28:37;15.90;99.90
37896;DHT22;23733;53.254;10.430;2023-06-14T05:31:03;16.00;99.90
37896;DHT22;23733;53.254;10.430;2023-06-14T05:33:29;16.10;99.90
37896;DHT22;23733;53.254;10.430;2023-06-14T05:35:55;16.20;99.90
37896;DHT22;23733;53.254;10.430;2023-06-14T05:38:21;16.30;99.90
37896;DHT22;23733;53.254;10.430;2023-06-14T05:40:47;16.40;99.90
37896;DHT22;23733;53.254;10.430;2023-06-14T05:43:13;16.50;99.90
37896;DHT22;23733;53.254;10.430;2023-06-14T05:45:39;16.40;99.90
37896;DHT22;23733;53.254;10.430;2023-06-14T05:48:05;16.50;99.90
37896;DHT22;23733;53.254;10.430;2023-06-14T05:50:31;16.60;99.90
37896;DHT22;23733;53.254;10.430;2023-06-14T05:52:57;16.70;99.90
37896;DHT22;23733;53.254;10.430;2023-06-14T05:55:23;16.80;99.90
37896;DHT22;23733;53.254;10.430;2023-06-14T05:57:49;16.80;99.90
37896;DHT22;23733;53.254;10.430;2023-06-14T06:00:16;16.80;99.90
37896;DHT22;23733;53.254;10.430;2023-06-14T06:02:43;16.90;99.90
37896;DHT22;23733;53.254;10.430;2023-06-14T06:05:10;16.90;99.90
37896;DHT22;23733;53.254;10.430;2023-06-14T06:07:37;16.90;99.90
37896;DHT22;23733;53.254;10.430;2023-06-14T06:29:36;17.00;99.90
37896;DHT22;23733;53.254;10.430;2023-06-14T06:32:02;17.50;99.90
37896;DHT22;23733;53.254;10.430;2023-06-14T06:39:21;17.60;99.90
37896;DHT22;23733;53.254;10.430;2023-06-14T06:41:47;17.80;99.90
37896;DHT22;23733;53.254;10.430;2023-06-14T06:44:13;17.90;99.90
37896;DHT22;23733;53.254;10.430;2023-06-14T06:46:39;18.00;99.90
37896;DHT22;23733;53.254;10.430;2023-06-14T06:49:07;18.00;99.90
37896;DHT22;23733;53.254;10.430;2023-06-14T06:51:35;18.10;99.90
37896;DHT22;23733;53.254;10.430;2023-06-14T06:54:02;18.00;99.90
37896;DHT22;23733;53.254;10.430;2023-06-14T06:56:29;18.00;99.90
37896;DHT22;23733;53.254;10.430;2023-06-14T06:58:55;18.10;99.90
37896;DHT22;23733;53.254;10.430;2023-06-14T07:01:21;18.30;99.90
37896;DHT22;23733;53.254;10.430;2023-06-14T07:03:47;18.30;99.90
37896;DHT22;23733;53.254;10.430;2023-06-14T07:06:13;18.30;99.90
37896;DHT22;23733;53.254;10.430;2023-06-14T07:08:40;18.40;99.90
37896;DHT22;23733;53.254;10.430;2023-06-14T07:11:06;18.60;99.90
37896;DHT22;23733;53.254;10.430;2023-06-14T07:13:32;18.60;99.90
37896;DHT22;23733;53.254;10.430;2023-06-14T07:15:59;18.60;99.90
37896;DHT22;23733;53.254;10.430;2023-06-14T07:18:26;18.70;99.90
37896;DHT22;23733;53.254;10.430;2023-06-14T07:20:56;18.80;99.90
37896;DHT22;23733;53.254;10.430;2023-06-14T07:23:23;18.90;99.90
37896;DHT22;23733;53.254;10.430;2023-06-14T07:25:49;19.00;99.90
37896;DHT22;23733;53.254;10.430;2023-06-14T07:28:17;19.10;99.90
37896;DHT22;23733;53.254;10.430;2023-06-14T07:30:44;19.10;99.90
37896;DHT22;23733;53.254;10.430;2023-06-14T07:33:10;19.20;99.90
37896;DHT22;23733;53.254;10.430;2023-06-14T07:35:38;19.30;99.90
37896;DHT22;23733;53.254;10.430;2023-06-14T07:38:04;19.50;99.90
37896;DHT22;23733;53.254;10.430;2023-06-14T07:40:30;19.50;99.90
37896;DHT22;23733;53.254;10.430;2023-06-14T07:42:56;19.60;99.90
37896;DHT22;23733;53.254;10.430;2023-06-14T07:45:22;19.60;99.90
37896;DHT22;23733;53.254;10.430;2023-06-14T08:02:27;19.70;99.90
37896;DHT22;23733;53.254;10.430;2023-06-14T08:04:53;20.20;99.90
37896;DHT22;23733;53.254;10.430;2023-06-14T08:07:19;20.30;99.90
37896;DHT22;23733;53.254;10.430;2023-06-14T08:09:45;20.30;99.90
37896;DHT22;23733;53.254;10.430;2023-06-14T08:12:11;20.50;99.90
37896;DHT22;23733;53.254;10.430;2023-06-14T08:14:39;20.50;99.90
37896;DHT22;23733;53.254;10.430;2023-06-14T08:17:05;20.60;99.90
37896;DHT22;23733;53.254;10.430;2023-06-14T08:19:31;20.40;99.90
37896;DHT22;23733;53.254;10.430;2023-06-14T08:21:57;20.50;99.90
37896;DHT22;23733;53.254;10.430;2023-06-14T08:24:24;20.50;99.90
37896;DHT22;23733;53.254;10.430;2023-06-14T08:26:50;20.60;99.90
37896;DHT22;23733;53.254;10.430;2023-06-14T08:29:16;20.70;99.90
37896;DHT22;23733;53.254;10.430;2023-06-14T08:34:09;20.80;99.90
37896;DHT22;23733;53.254;10.430;2023-06-14T08:36:35;20.90;99.90
37896;DHT22;23733;53.254;10.430;2023-06-14T08:39:01;21.00;99.90
37896;DHT22;23733;53.254;10.430;2023-06-14T08:41:28;21.10;99.90
37896;DHT22;23733;53.254;10.430;2023-06-14T08:43:55;21.20;99.90
37896;DHT22;23733;53.254;10.430;2023-06-14T08:46:25;21.20;99.90
37896;DHT22;23733;53.254;10.430;2023-06-14T08:48:55;21.20;99.90
37896;DHT22;23733;53.254;10.430;2023-06-14T08:51:25;21.30;99.90
37896;DHT22;23733;53.254;10.430;2023-06-14T08:53:56;21.40;99.90
37896;DHT22;23733;53.254;10.430;2023-06-14T08:56:26;21.40;99.90
37896;DHT22;23733;53.254;10.430;2023-06-14T08:58:53;21.50;99.90
37896;DHT22;23733;53.254;10.430;2023-06-14T09:01:20;21.40;99.90
37896;DHT22;23733;53.254;10.430;2023-06-14T09:03:48;21.40;99.90
37896;DHT22;23733;53.254;10.430;2023-06-14T09:06:15;21.50;99.90
37896;DHT22;23733;53.254;10.430;2023-06-14T09:08:45;21.60;99.90
37896;DHT22;23733;53.254;10.430;2023-06-14T09:11:12;21.50;99.90
37896;DHT22;23733;53.254;10.430;2023-06-14T09:13:39;21.60;99.90
37896;DHT22;23733;53.254;10.430;2023-06-14T09:16:07;21.70;99.90
37896;DHT22;23733;53.254;10.430;2023-06-14T09:18:43;21.70;99.90
37896;DHT22;23733;53.254;10.430;2023-06-14T09:21:11;21.70;99.90
37896;DHT22;23733;53.254;10.430;2023-06-14T09:23:38;21.80;99.90
37896;DHT22;23733;53.254;10.430;2023-06-14T09:26:09;22.00;99.90
37896;DHT22;23733;53.254;10.430;2023-06-14T09:28:36;22.00;99.90
37896;DHT22;23733;53.254;10.430;2023-06-14T09:31:07;21.90;99.90
37896;DHT22;23733;53.254;10.430;2023-06-14T09:33:34;22.20;99.90
37896;DHT22;23733;53.254;10.430;2023-06-14T09:36:00;22.30;99.90
37896;DHT22;23733;53.254;10.430;2023-06-14T09:38:26;22.30;99.90
37896;DHT22;23733;53.254;10.430;2023-06-14T09:40:52;22.30;99.90
37896;DHT22;23733;53.254;10.430;2023-06-14T09:43:19;22.40;99.90
37896;DHT22;23733;53.254;10.430;2023-06-14T09:45:48;22.40;99.90
37896;DHT22;23733;53.254;10.430;2023-06-14T09:48:14;22.50;99.90
37896;DHT22;23733;53.254;10.430;2023-06-14T09:50:46;22.50;99.90
37896;DHT22;23733;53.254;10.430;2023-06-14T09:53:14;22.60;99.90
37896;DHT22;23733;53.254;10.430;2023-06-14T09:55:41;22.70;99.90
37896;DHT22;23733;53.254;10.430;2023-06-14T09:58:09;22.80;99.90
37896;DHT22;23733;53.254;10.430;2023-06-14T10:00:36;22.90;99.90
37896;DHT22;23733;53.254;10.430;2023-06-14T10:03:13;23.00;99.90
37896;DHT22;23733;53.254;10.430;2023-06-14T10:05:43;22.90;99.90
37896;DHT22;23733;53.254;10.430;2023-06-14T10:08:14;22.90;99.90
37896;DHT22;23733;53.254;10.430;2023-06-14T10:10:42;22.90;99.90
37896;DHT22;23733;53.254;10.430;2023-06-14T10:13:09;22.90;99.90
37896;DHT22;23733;53.254;10.430;2023-06-14T10:15:48;23.00;99.90
37896;DHT22;23733;53.254;10.430;2023-06-14T10:18:31;23.10;99.90
37896;DHT22;23733;53.254;10.430;2023-06-14T10:21:18;23.20;99.90
37896;DHT22;23733;53.254;10.430;2023-06-14T10:23:48;23.10;99.90
37896;DHT22;23733;53.254;10.430;2023-06-14T10:26:22;22.90;99.90
37896;DHT22;23733;53.254;10.430;2023-06-14T10:28:58;23.00;99.90
37896;DHT22;23733;53.254;10.430;2023-06-14T10:34:08;23.00;99.90
37896;DHT22;23733;53.254;10.430;2023-06-14T10:36:34;23.10;99.90
37896;DHT22;23733;53.254;10.430;2023-06-14T10:39:10;23.00;99.90
37896;DHT22;23733;53.254;10.430;2023-06-14T10:41:40;23.10;99.90
37896;DHT22;23733;53.254;10.430;2023-06-14T10:46:49;23.10;99.90
37896;DHT22;23733;53.254;10.430;2023-06-14T10:49:19;23.10;99.90
37896;DHT22;23733;53.254;10.430;2023-06-14T10:51:49;23.10;99.90
37896;DHT22;23733;53.254;10.430;2023-06-14T10:54:16;23.30;99.90
37896;DHT22;23733;53.254;10.430;2023-06-14T10:56:52;23.40;99.90
37896;DHT22;23733;53.254;10.430;2023-06-14T10:59:19;23.20;99.90
37896;DHT22;23733;53.254;10.430;2023-06-14T11:04:51;23.20;99.90
37896;DHT22;23733;53.254;10.430;2023-06-14T11:07:34;23.20;99.90
37896;DHT22;23733;53.254;10.430;2023-06-14T11:13:00;23.10;99.90
37896;DHT22;23733;53.254;10.430;2023-06-14T11:15:30;23.20;99.90
37896;DHT22;23733;53.254;10.430;2023-06-14T11:18:06;23.30;99.90
37896;DHT22;23733;53.254;10.430;2023-06-14T11:20:35;23.30;99.90
37896;DHT22;23733;53.254;10.430;2023-06-14T11:23:01;23.50;99.90
37896;DHT22;23733;53.254;10.430;2023-06-14T11:25:28;23.60;99.90
37896;DHT22;23733;53.254;10.430;2023-06-14T11:27:54;23.60;99.90
37896;DHT22;23733;53.254;10.430;2023-06-14T11:30:21;23.50;99.90
37896;DHT22;23733;53.254;10.430;2023-06-14T11:32:49;23.60;99.90
37896;DHT22;23733;53.254;10.430;2023-06-14T11:35:16;23.70;99.90
37896;DHT22;23733;53.254;10.430;2023-06-14T11:37:43;23.60;99.90
37896;DHT22;23733;53.254;10.430;2023-06-14T11:40:11;23.50;99.90
37896;DHT22;23733;53.254;10.430;2023-06-14T11:42:39;23.70;99.90
37896;DHT22;23733;53.254;10.430;2023-06-14T11:45:09;23.90;99.90
37896;DHT22;23733;53.254;10.430;2023-06-14T11:47:36;23.90;99.90
37896;DHT22;23733;53.254;10.430;2023-06-14T11:50:04;23.70;99.90
37896;DHT22;23733;53.254;10.430;2023-06-14T11:52:31;23.70;99.90
37896;DHT22;23733;53.254;10.430;2023-06-14T11:54:57;23.60;99.90
37896;DHT22;23733;53.254;10.430;2023-06-14T11:59:51;23.50;99.90
37896;DHT22;23733;53.254;10.430;2023-06-14T12:02:18;23.40;99.90
37896;DHT22;23733;53.254;10.430;2023-06-14T12:04:47;23.50;99.90
37896;DHT22;23733;53.254;10.430;2023-06-14T12:07:15;23.70;99.90
37896;DHT22;23733;53.254;10.430;2023-06-14T12:10:03;23.70;99.90
37896;DHT22;23733;53.254;10.430;2023-06-14T12:12:37;23.90;99.90
37896;DHT22;23733;53.254;10.430;2023-06-14T12:15:05;23.90;99.90
37896;DHT22;23733;53.254;10.430;2023-06-14T12:17:36;24.10;99.90
37896;DHT22;23733;53.254;10.430;2023-06-14T12:20:10;24.10;99.90
37896;DHT22;23733;53.254;10.430;2023-06-14T12:22:55;24.10;99.90
37896;DHT22;23733;53.254;10.430;2023-06-14T12:25:32;24.00;99.90
37896;DHT22;23733;53.254;10.430;2023-06-14T12:28:09;24.10;99.90
37896;DHT22;23733;53.254;10.430;2023-06-14T12:30:36;24.20;99.90
37896;DHT22;23733;53.254;10.430;2023-06-14T12:33:05;24.40;99.90
37896;DHT22;23733;53.254;10.430;2023-06-14T12:35:31;24.30;99.90
37896;DHT22;23733;53.254;10.430;2023-06-14T12:37:57;24.20;99.90
37896;DHT22;23733;53.254;10.430;2023-06-14T12:40:23;24.10;99.90
37896;DHT22;23733;53.254;10.430;2023-06-14T12:42:49;24.20;99.90
37896;DHT22;23733;53.254;10.430;2023-06-14T12:45:16;24.00;99.90
37896;DHT22;23733;53.254;10.430;2023-06-14T12:47:42;24.00;99.90
37896;DHT22;23733;53.254;10.430;2023-06-14T12:50:08;24.30;99.90
37896;DHT22;23733;53.254;10.430;2023-06-14T12:52:34;24.30;99.90
37896;DHT22;23733;53.254;10.430;2023-06-14T12:55:06;24.40;99.90
37896;DHT22;23733;53.254;10.430;2023-06-14T12:57:32;24.40;99.90
37896;DHT22;23733;53.254;10.430;2023-06-14T13:00:00;24.20;99.90
37896;DHT22;23733;53.254;10.430;2023-06-14T13:02:26;24.30;99.90
37896;DHT22;23733;53.254;10.430;2023-06-14T13:04:52;24.40;99.90
37896;DHT22;23733;53.254;10.430;2023-06-14T13:07:18;24.50;99.90
37896;DHT22;23733;53.254;10.430;2023-06-14T13:09:44;24.60;99.90
37896;DHT22;23733;53.254;10.430;2023-06-14T13:12:13;24.50;99.90
37896;DHT22;23733;53.254;10.430;2023-06-14T13:14:40;24.50;99.90
37896;DHT22;23733;53.254;10.430;2023-06-14T13:17:10;24.60;99.90
37896;DHT22;23733;53.254;10.430;2023-06-14T13:19:36;24.60;99.90
37896;DHT22;23733;53.254;10.430;2023-06-14T13:22:03;24.70;99.90
37896;DHT22;23733;53.254;10.430;2023-06-14T13:24:29;24.70;99.90
37896;DHT22;23733;53.254;10.430;2023-06-14T13:26:56;24.60;99.90
37896;DHT22;23733;53.254;10.430;2023-06-14T13:29:23;24.70;99.90
37896;DHT22;23733;53.254;10.430;2023-06-14T13:31:49;24.60;99.90
37896;DHT22;23733;53.254;10.430;2023-06-14T13:34:15;24.50;99.90
37896;DHT22;23733;53.254;10.430;2023-06-14T13:36:41;24.50;99.90
37896;DHT22;23733;53.254;10.430;2023-06-14T13:39:07;24.70;99.90
37896;DHT22;23733;53.254;10.430;2023-06-14T13:41:33;24.70;99.90
37896;DHT22;23733;53.254;10.430;2023-06-14T13:44:01;24.70;99.90
37896;DHT22;23733;53.254;10.430;2023-06-14T13:46:29;24.70;99.90
37896;DHT22;23733;53.254;10.430;2023-06-14T13:48:55;24.80;99.90
37896;DHT22;23733;53.254;10.430;2023-06-14T13:51:23;24.70;99.90
37896;DHT22;23733;53.254;10.430;2023-06-14T13:53:49;24.60;99.90
37896;DHT22;23733;53.254;10.430;2023-06-14T13:56:17;24.70;99.90
37896;DHT22;23733;53.254;10.430;2023-06-14T13:58:43;24.70;99.90
37896;DHT22;23733;53.254;10.430;2023-06-14T14:01:09;24.80;99.90
37896;DHT22;23733;53.254;10.430;2023-06-14T14:03:36;24.60;99.90
37896;DHT22;23733;53.254;10.430;2023-06-14T14:06:04;24.70;99.90
37896;DHT22;23733;53.254;10.430;2023-06-14T14:08:31;24.60;99.90
37896;DHT22;23733;53.254;10.430;2023-06-14T14:10:58;24.50;99.90
37896;DHT22;23733;53.254;10.430;2023-06-14T14:13:24;24.40;99.90
37896;DHT22;23733;53.254;10.430;2023-06-14T14:15:50;24.40;99.90
37896;DHT22;23733;53.254;10.430;2023-06-14T14:18:16;24.30;99.90
37896;DHT22;23733;53.254;10.430;2023-06-14T14:20:43;24.30;99.90
37896;DHT22;23733;53.254;10.430;2023-06-14T14:23:09;24.30;99.90
37896;DHT22;23733;53.254;10.430;2023-06-14T14:25:35;24.30;99.90
37896;DHT22;23733;53.254;10.430;2023-06-14T14:28:01;24.20;99.90
37896;DHT22;23733;53.254;10.430;2023-06-14T14:30:27;24.30;99.90
37896;DHT22;23733;53.254;10.430;2023-06-14T14:32:53;24.40;99.90
37896;DHT22;23733;53.254;10.430;2023-06-14T14:35:19;24.30;99.90
37896;DHT22;23733;53.254;10.430;2023-06-14T14:37:45;24.10;99.90
37896;DHT22;23733;53.254;10.430;2023-06-14T14:40:12;24.00;99.90
37896;DHT22;23733;53.254;10.430;2023-06-14T14:42:38;24.00;99.90
37896;DHT22;23733;53.254;10.430;2023-06-14T14:45:04;24.00;99.90
37896;DHT22;23733;53.254;10.430;2023-06-14T14:47:31;24.10;99.90
37896;DHT22;23733;53.254;10.430;2023-06-14T14:49:57;24.20;99.90
37896;DHT22;23733;53.254;10.430;2023-06-14T14:52:23;24.30;99.90
37896;DHT22;23733;53.254;10.430;2023-06-14T14:54:49;24.30;99.90
37896;DHT22;23733;53.254;10.430;2023-06-14T14:57:15;24.30;99.90
37896;DHT22;23733;53.254;10.430;2023-06-14T14:59:41;24.40;99.90
37896;DHT22;23733;53.254;10.430;2023-06-14T15:02:07;24.40;99.90
37896;DHT22;23733;53.254;10.430;2023-06-14T15:04:33;24.30;99.90
37896;DHT22;23733;53.254;10.430;2023-06-14T15:06:59;24.30;99.90
37896;DHT22;23733;53.254;10.430;2023-06-14T15:09:25;24.30;99.90
37896;DHT22;23733;53.254;10.430;2023-06-14T15:11:51;24.40;99.90
37896;DHT22;23733;53.254;10.430;2023-06-14T15:14:17;24.30;99.90
37896;DHT22;23733;53.254;10.430;2023-06-14T15:16:43;24.20;99.90
37896;DHT22;23733;53.254;10.430;2023-06-14T15:19:10;24.20;99.90
37896;DHT22;23733;53.254;10.430;2023-06-14T15:43:38;24.10;99.90
37896;DHT22;23733;53.254;10.430;2023-06-14T16:05:34;24.00;99.90
37896;DHT22;23733;53.254;10.430;2023-06-14T16:08:00;23.80;99.90
37896;DHT22;23733;53.254;10.430;2023-06-14T16:10:26;23.90;99.90
37896;DHT22;23733;53.254;10.430;2023-06-14T16:12:52;23.90;99.90
37896;DHT22;23733;53.254;10.430;2023-06-14T16:15:18;23.90;99.90
37896;DHT22;23733;53.254;10.430;2023-06-14T16:17:44;23.90;99.90
37896;DHT22;23733;53.254;10.430;2023-06-14T16:20:10;23.80;99.90
37896;DHT22;23733;53.254;10.430;2023-06-14T16:22:36;23.80;99.90
37896;DHT22;23733;53.254;10.430;2023-06-14T16:25:03;23.80;99.90
37896;DHT22;23733;53.254;10.430;2023-06-14T16:27:30;23.80;99.90
37896;DHT22;23733;53.254;10.430;2023-06-14T16:29:56;23.80;99.90
37896;DHT22;23733;53.254;10.430;2023-06-14T16:32:22;23.80;99.90
37896;DHT22;23733;53.254;10.430;2023-06-14T16:34:48;23.80;99.90
37896;DHT22;23733;53.254;10.430;2023-06-14T16:37:14;23.70;99.90
37896;DHT22;23733;53.254;10.430;2023-06-14T16:39:40;23.70;99.90
37896;DHT22;23733;53.254;10.430;2023-06-14T16:42:06;23.60;99.90
37896;DHT22;23733;53.254;10.430;2023-06-14T16:44:32;23.60;99.90
37896;DHT22;23733;53.254;10.430;2023-06-14T16:46:58;23.60;99.90
37896;DHT22;23733;53.254;10.430;2023-06-14T16:49:26;23.60;99.90
37896;DHT22;23733;53.254;10.430;2023-06-14T16:51:54;23.60;99.90
37896;DHT22;23733;53.254;10.430;2023-06-14T16:54:20;23.50;99.90
37896;DHT22;23733;53.254;10.430;2023-06-14T16:56:46;23.50;99.90
37896;DHT22;23733;53.254;10.430;2023-06-14T16:59:12;23.50;99.90
37896;DHT22;23733;53.254;10.430;2023-06-14T17:01:38;23.50;99.90
37896;DHT22;23733;53.254;10.430;2023-06-14T17:04:04;23.50;99.90